sensor_id;sensor_type;location;lat;lon;timestamp;pressure;altitude;pressure_sealevel;temperature
68911;BMP180;55953;51.650;-0.522;2023-12-22T00:00:04;100290.60;;;10.00
68911;BMP180;55953;51.650;-0.522;2023-12-22T00:02:33;100305.80;;;10.00
68911;BMP180;55953;51.650;-0.522;2023-12-22T00:05:01;100294.40;;;10.00
68911;BMP180;55953;51.650;-0.522;2023-12-22T00:07:29;100293.40;;;10.00
68911;BMP180;55953;51.650;-0.522;2023-12-22T00:09:57;100299.80;;;10.00
68911;BMP180;55953;51.650;-0.522;2023-12-22T00:12:25;100293.20;;;10.02
68911;BMP180;55953;51.650;-0.522;2023-12-22T00:14:53;100295.60;;;10.10
68911;BMP180;55953;51.650;-0.522;2023-12-22T00:17:21;100291.20;;;10.10
68911;BMP180;55953;51.650;-0.522;2023-12-22T00:19:49;100289.80;;;10.16
68911;BMP180;55953;51.650;-0.522;2023-12-22T00:22:17;100287.00;;;10.20
68911;BMP180;55953;51.650;-0.522;2023-12-22T00:24:45;100270.00;;;10.26
68911;BMP180;55953;51.650;-0.522;2023-12-22T00:27:13;100273.00;;;10.30
68911;BMP180;55953;51.650;-0.522;2023-12-22T00:29:41;100270.60;;;10.34
68911;BMP180;55953;51.650;-0.522;2023-12-22T00:32:09;100266.00;;;10.40
68911;BMP180;55953;51.650;-0.522;2023-12-22T00:34:37;100260.40;;;10.46
68911;BMP180;55953;51.650;-0.522;2023-12-22T00:37:05;100263.00;;;10.50
68911;BMP180;55953;51.650;-0.522;2023-12-22T00:39:33;100249.20;;;10.50
68911;BMP180;55953;51.650;-0.522;2023-12-22T00:42:01;100257.00;;;10.52
68911;BMP180;55953;51.650;-0.522;2023-12-22T00:44:31;100256.40;;;10.58
68911;BMP180;55953;51.650;-0.522;2023-12-22T00:46:59;100259.00;;;10.60
68911;BMP180;55953;51.650;-0.522;2023-12-22T00:49:27;100252.00;;;10.58
68911;BMP180;55953;51.650;-0.522;2023-12-22T00:51:55;100248.80;;;10.56
68911;BMP180;55953;51.650;-0.522;2023-12-22T00:54:23;100240.20;;;10.50
68911;BMP180;55953;51.650;-0.522;2023-12-22T00:56:52;100247.20;;;10.50
68911;BMP180;55953;51.650;-0.522;2023-12-22T00:59:21;100247.00;;;10.50
68911;BMP180;55953;51.650;-0.522;2023-12-22T01:01:49;100243.20;;;10.50
68911;BMP180;55953;51.650;-0.522;2023-12-22T01:04:17;100250.60;;;10.50
68911;BMP180;55953;51.650;-0.522;2023-12-22T01:06:45;100260.00;;;10.50
68911;BMP180;55953;51.650;-0.522;2023-12-22T01:09:13;100260.60;;;10.58
68911;BMP180;55953;51.650;-0.522;2023-12-22T01:11:42;100260.20;;;10.50
68911;BMP180;55953;51.650;-0.522;2023-12-22T01:14:11;100248.40;;;10.50
68911;BMP180;55953;51.650;-0.522;2023-12-22T01:16:40;100266.00;;;10.60
68911;BMP180;55953;51.650;-0.522;2023-12-22T01:19:08;100269.00;;;10.58
68911;BMP180;55953;51.650;-0.522;2023-12-22T01:21:36;100274.80;;;10.56
68911;BMP180;55953;51.650;-0.522;2023-12-22T01:24:04;100280.00;;;10.52
68911;BMP180;55953;51.650;-0.522;2023-12-22T01:26:32;100281.60;;;10.50
68911;BMP180;55953;51.650;-0.522;2023-12-22T01:29:00;100279.40;;;10.52
68911;BMP180;55953;51.650;-0.522;2023-12-22T01:31:28;100278.40;;;10.50
68911;BMP180;55953;51.650;-0.522;2023-12-22T01:33:56;100276.80;;;10.50
68911;BMP180;55953;51.650;-0.522;2023-12-22T01:36:24;100278.00;;;10.50
68911;BMP180;55953;51.650;-0.522;2023-12-22T01:38:52;100283.00;;;10.50
68911;BMP180;55953;51.650;-0.522;2023-12-22T01:41:20;100274.40;;;10.48
68911;BMP180;55953;51.650;-0.522;2023-12-22T01:43:48;100270.00;;;10.50
68911;BMP180;55953;51.650;-0.522;2023-12-22T01:46:16;100264.60;;;10.50
68911;BMP180;55953;51.650;-0.522;2023-12-22T01:48:45;100264.40;;;10.50
68911;BMP180;55953;51.650;-0.522;2023-12-22T01:51:13;100277.20;;;10.60
68911;BMP180;55953;51.650;-0.522;2023-12-22T01:53:41;100281.20;;;10.60
68911;BMP180;55953;51.650;-0.522;2023-12-22T01:56:09;100285.00;;;10.60
68911;BMP180;55953;51.650;-0.522;2023-12-22T01:58:37;100289.00;;;10.58
68911;BMP180;55953;51.650;-0.522;2023-12-22T02:01:13;100280.40;;;10.52
68911;BMP180;55953;51.650;-0.522;2023-12-22T02:03:42;100285.20;;;10.50
68911;BMP180;55953;51.650;-0.522;2023-12-22T02:06:10;100282.20;;;10.50
68911;BMP180;55953;51.650;-0.522;2023-12-22T02:08:39;100269.00;;;10.40
68911;BMP180;55953;51.650;-0.522;2023-12-22T02:11:08;100279.40;;;10.38
68911;BMP180;55953;51.650;-0.522;2023-12-22T02:13:36;100282.00;;;10.30
68911;BMP180;55953;51.650;-0.522;2023-12-22T02:16:37;100284.60;;;10.20
68911;BMP180;55953;51.650;-0.522;2023-12-22T02:19:27;100281.60;;;10.20
68911;BMP180;55953;51.650;-0.522;2023-12-22T02:22:08;100289.20;;;10.10
68911;BMP180;55953;51.650;-0.522;2023-12-22T02:24:41;100293.00;;;10.10
68911;BMP180;55953;51.650;-0.522;2023-12-22T02:27:28;100289.60;;;10.10
68911;BMP180;55953;51.650;-0.522;2023-12-22T02:30:09;100288.80;;;10.10
68911;BMP180;55953;51.650;-0.522;2023-12-22T02:32:43;100285.80;;;10.08
68911;BMP180;55953;51.650;-0.522;2023-12-22T02:35:16;100283.40;;;10.00
68911;BMP180;55953;51.650;-0.522;2023-12-22T02:37:47;100278.60;;;10.00
68911;BMP180;55953;51.650;-0.522;2023-12-22T02:40:16;100276.20;;;10.00
68911;BMP180;55953;51.650;-0.522;2023-12-22T02:42:46;100280.60;;;10.00
68911;BMP180;55953;51.650;-0.522;2023-12-22T02:45:17;100288.00;;;10.00
68911;BMP180;55953;51.650;-0.522;2023-12-22T02:47:46;100278.40;;;10.00
68911;BMP180;55953;51.650;-0.522;2023-12-22T02:50:16;100279.20;;;10.00
68911;BMP180;55953;51.650;-0.522;2023-12-22T02:52:45;100265.40;;;10.00
68911;BMP180;55953;51.650;-0.522;2023-12-22T02:55:13;100252.80;;;10.00
68911;BMP180;55953;51.650;-0.522;2023-12-22T02:57:41;100246.20;;;10.00
68911;BMP180;55953;51.650;-0.522;2023-12-22T03:00:10;100240.40;;;9.98
68911;BMP180;55953;51.650;-0.522;2023-12-22T03:02:37;100244.40;;;9.90
68911;BMP180;55953;51.650;-0.522;2023-12-22T03:05:06;100242.20;;;9.90
68911;BMP180;55953;51.650;-0.522;2023-12-22T03:07:34;100235.20;;;9.90
68911;BMP180;55953;51.650;-0.522;2023-12-22T03:10:02;100229.60;;;9.90
68911;BMP180;55953;51.650;-0.522;2023-12-22T03:12:30;100229.80;;;9.90
68911;BMP180;55953;51.650;-0.522;2023-12-22T03:14:58;100228.00;;;9.94
68911;BMP180;55953;51.650;-0.522;2023-12-22T03:17:26;100227.40;;;10.00
68911;BMP180;55953;51.650;-0.522;2023-12-22T03:19:54;100225.00;;;10.00
68911;BMP180;55953;51.650;-0.522;2023-12-22T03:22:22;100221.00;;;10.00
68911;BMP180;55953;51.650;-0.522;2023-12-22T03:24:50;100203.00;;;10.00
68911;BMP180;55953;51.650;-0.522;2023-12-22T03:27:18;100202.60;;;10.10
68911;BMP180;55953;51.650;-0.522;2023-12-22T03:29:47;100204.00;;;10.10
68911;BMP180;55953;51.650;-0.522;2023-12-22T03:32:15;100202.60;;;10.16
68911;BMP180;55953;51.650;-0.522;2023-12-22T03:34:44;100199.00;;;10.20
68911;BMP180;55953;51.650;-0.522;2023-12-22T03:37:12;100200.80;;;10.20
68911;BMP180;55953;51.650;-0.522;2023-12-22T03:39:39;100196.00;;;10.20
68911;BMP180;55953;51.650;-0.522;2023-12-22T03:42:07;100198.60;;;10.20
68911;BMP180;55953;51.650;-0.522;2023-12-22T03:44:35;100200.60;;;10.20
68911;BMP180;55953;51.650;-0.522;2023-12-22T03:47:03;100201.80;;;10.30
68911;BMP180;55953;51.650;-0.522;2023-12-22T03:49:31;100200.00;;;10.30
68911;BMP180;55953;51.650;-0.522;2023-12-22T03:51:59;100196.00;;;10.40
68911;BMP180;55953;51.650;-0.522;2023-12-22T03:54:27;100194.00;;;10.40
68911;BMP180;55953;51.650;-0.522;2023-12-22T03:56:55;100189.40;;;10.42
68911;BMP180;55953;51.650;-0.522;2023-12-22T03:59:23;100192.40;;;10.50
68911;BMP180;55953;51.650;-0.522;2023-12-22T04:01:52;100192.00;;;10.50
68911;BMP180;55953;51.650;-0.522;2023-12-22T04:04:25;100197.40;;;10.58
68911;BMP180;55953;51.650;-0.522;2023-12-22T04:06:55;100187.40;;;10.60
68911;BMP180;55953;51.650;-0.522;2023-12-22T04:09:23;100193.40;;;10.60
68911;BMP180;55953;51.650;-0.522;2023-12-22T04:11:51;100199.00;;;10.60
68911;BMP180;55953;51.650;-0.522;2023-12-22T04:14:19;100200.00;;;10.60
68911;BMP180;55953;51.650;-0.522;2023-12-22T04:16:47;100192.40;;;10.60
68911;BMP180;55953;51.650;-0.522;2023-12-22T04:19:15;100188.60;;;10.60
68911;BMP180;55953;51.650;-0.522;2023-12-22T04:21:45;100192.00;;;10.60
68911;BMP180;55953;51.650;-0.522;2023-12-22T04:24:14;100188.40;;;10.60
68911;BMP180;55953;51.650;-0.522;2023-12-22T04:26:42;100193.60;;;10.68
68911;BMP180;55953;51.650;-0.522;2023-12-22T04:29:10;100197.20;;;10.70
68911;BMP180;55953;51.650;-0.522;2023-12-22T04:31:38;100198.00;;;10.70
68911;BMP180;55953;51.650;-0.522;2023-12-22T04:34:06;100201.40;;;10.72
68911;BMP180;55953;51.650;-0.522;2023-12-22T04:36:35;100194.60;;;10.80
68911;BMP180;55953;51.650;-0.522;2023-12-22T04:39:03;100187.00;;;10.80
68911;BMP180;55953;51.650;-0.522;2023-12-22T04:41:31;100180.20;;;10.80
68911;BMP180;55953;51.650;-0.522;2023-12-22T04:43:59;100186.40;;;10.80
68911;BMP180;55953;51.650;-0.522;2023-12-22T04:46:30;100184.20;;;10.80
68911;BMP180;55953;51.650;-0.522;2023-12-22T04:48:58;100184.40;;;10.90
68911;BMP180;55953;51.650;-0.522;2023-12-22T04:51:26;100188.20;;;10.90
68911;BMP180;55953;51.650;-0.522;2023-12-22T04:53:54;100174.20;;;10.90
68911;BMP180;55953;51.650;-0.522;2023-12-22T04:56:22;100185.00;;;10.96
68911;BMP180;55953;51.650;-0.522;2023-12-22T04:58:50;100175.80;;;11.00
68911;BMP180;55953;51.650;-0.522;2023-12-22T05:01:18;100173.20;;;11.00
68911;BMP180;55953;51.650;-0.522;2023-12-22T05:03:47;100165.80;;;11.00
68911;BMP180;55953;51.650;-0.522;2023-12-22T05:06:15;100168.20;;;11.00
68911;BMP180;55953;51.650;-0.522;2023-12-22T05:08:43;100167.00;;;11.00
68911;BMP180;55953;51.650;-0.522;2023-12-22T05:11:10;100162.20;;;11.06
68911;BMP180;55953;51.650;-0.522;2023-12-22T05:13:38;100164.00;;;11.10
68911;BMP180;55953;51.650;-0.522;2023-12-22T05:16:08;100165.60;;;11.10
68911;BMP180;55953;51.650;-0.522;2023-12-22T05:18:36;100187.20;;;11.10
68911;BMP180;55953;51.650;-0.522;2023-12-22T05:21:04;100182.20;;;11.10
68911;BMP180;55953;51.650;-0.522;2023-12-22T05:23:32;100177.60;;;11.08
68911;BMP180;55953;51.650;-0.522;2023-12-22T05:26:00;100178.60;;;11.00
68911;BMP180;55953;51.650;-0.522;2023-12-22T05:28:28;100184.20;;;10.98
68911;BMP180;55953;51.650;-0.522;2023-12-22T05:30:56;100172.60;;;10.90
68911;BMP180;55953;51.650;-0.522;2023-12-22T05:33:24;100179.60;;;10.80
68911;BMP180;55953;51.650;-0.522;2023-12-22T05:35:52;100184.80;;;10.70
68911;BMP180;55953;51.650;-0.522;2023-12-22T05:38:20;100181.60;;;10.70
68911;BMP180;55953;51.650;-0.522;2023-12-22T05:40:48;100186.80;;;10.70
68911;BMP180;55953;51.650;-0.522;2023-12-22T05:43:16;100192.00;;;10.70
68911;BMP180;55953;51.650;-0.522;2023-12-22T05:45:44;100188.60;;;10.70
68911;BMP180;55953;51.650;-0.522;2023-12-22T05:48:12;100183.60;;;10.72
68911;BMP180;55953;51.650;-0.522;2023-12-22T05:50:40;100189.80;;;10.70
68911;BMP180;55953;51.650;-0.522;2023-12-22T05:53:08;100188.60;;;10.70
68911;BMP180;55953;51.650;-0.522;2023-12-22T05:55:38;100197.60;;;10.72
68911;BMP180;55953;51.650;-0.522;2023-12-22T05:58:06;100197.40;;;10.70
68911;BMP180;55953;51.650;-0.522;2023-12-22T06:00:54;100183.20;;;10.70
68911;BMP180;55953;51.650;-0.522;2023-12-22T06:03:21;100179.20;;;10.70
68911;BMP180;55953;51.650;-0.522;2023-12-22T06:05:49;100182.20;;;10.70
68911;BMP180;55953;51.650;-0.522;2023-12-22T06:08:17;100177.00;;;10.70
68911;BMP180;55953;51.650;-0.522;2023-12-22T06:10:45;100180.20;;;10.70
68911;BMP180;55953;51.650;-0.522;2023-12-22T06:13:13;100177.60;;;10.70
68911;BMP180;55953;51.650;-0.522;2023-12-22T06:15:42;100180.40;;;10.60
68911;BMP180;55953;51.650;-0.522;2023-12-22T06:18:10;100175.60;;;10.60
68911;BMP180;55953;51.650;-0.522;2023-12-22T06:20:39;100173.00;;;10.60
68911;BMP180;55953;51.650;-0.522;2023-12-22T06:23:07;100175.60;;;10.60
68911;BMP180;55953;51.650;-0.522;2023-12-22T06:25:34;100158.00;;;10.60
68911;BMP180;55953;51.650;-0.522;2023-12-22T06:28:03;100161.80;;;10.60
68911;BMP180;55953;51.650;-0.522;2023-12-22T06:30:31;100164.60;;;10.60
68911;BMP180;55953;51.650;-0.522;2023-12-22T06:32:59;100163.80;;;10.60
68911;BMP180;55953;51.650;-0.522;2023-12-22T06:35:27;100172.00;;;10.60
68911;BMP180;55953;51.650;-0.522;2023-12-22T06:37:55;100160.00;;;10.62
68911;BMP180;55953;51.650;-0.522;2023-12-22T06:40:24;100166.00;;;10.70
68911;BMP180;55953;51.650;-0.522;2023-12-22T06:42:51;100180.00;;;10.70
68911;BMP180;55953;51.650;-0.522;2023-12-22T06:45:19;100153.40;;;10.80
68911;BMP180;55953;51.650;-0.522;2023-12-22T06:47:48;100187.00;;;10.80
68911;BMP180;55953;51.650;-0.522;2023-12-22T06:50:16;100186.00;;;10.80
68911;BMP180;55953;51.650;-0.522;2023-12-22T06:52:44;100188.80;;;10.80
68911;BMP180;55953;51.650;-0.522;2023-12-22T06:55:12;100188.20;;;10.90
68911;BMP180;55953;51.650;-0.522;2023-12-22T06:57:41;100195.00;;;10.90
68911;BMP180;55953;51.650;-0.522;2023-12-22T07:00:11;100203.60;;;10.90
68911;BMP180;55953;51.650;-0.522;2023-12-22T07:02:39;100199.60;;;10.92
68911;BMP180;55953;51.650;-0.522;2023-12-22T07:07:38;100208.80;;;11.00
68911;BMP180;55953;51.650;-0.522;2023-12-22T07:10:06;100210.80;;;11.02
68911;BMP180;55953;51.650;-0.522;2023-12-22T07:12:34;100203.20;;;11.00
68911;BMP180;55953;51.650;-0.522;2023-12-22T07:15:02;100210.00;;;11.00
68911;BMP180;55953;51.650;-0.522;2023-12-22T07:17:31;100212.40;;;11.00
68911;BMP180;55953;51.650;-0.522;2023-12-22T07:19:59;100220.20;;;11.00
68911;BMP180;55953;51.650;-0.522;2023-12-22T07:22:27;100226.40;;;10.90
68911;BMP180;55953;51.650;-0.522;2023-12-22T07:24:55;100223.80;;;10.90
68911;BMP180;55953;51.650;-0.522;2023-12-22T07:27:25;100227.60;;;10.82
68911;BMP180;55953;51.650;-0.522;2023-12-22T07:29:55;100223.20;;;10.80
68911;BMP180;55953;51.650;-0.522;2023-12-22T07:32:23;100225.00;;;10.80
68911;BMP180;55953;51.650;-0.522;2023-12-22T07:34:50;100232.80;;;10.80
68911;BMP180;55953;51.650;-0.522;2023-12-22T07:37:19;100228.80;;;10.80
68911;BMP180;55953;51.650;-0.522;2023-12-22T07:39:47;100232.80;;;10.80
68911;BMP180;55953;51.650;-0.522;2023-12-22T07:42:15;100234.20;;;10.70
68911;BMP180;55953;51.650;-0.522;2023-12-22T07:44:44;100233.00;;;10.70
68911;BMP180;55953;51.650;-0.522;2023-12-22T07:47:12;100237.80;;;10.70
68911;BMP180;55953;51.650;-0.522;2023-12-22T07:49:40;100248.00;;;10.80
68911;BMP180;55953;51.650;-0.522;2023-12-22T07:52:08;100254.60;;;10.80
68911;BMP180;55953;51.650;-0.522;2023-12-22T07:54:36;100249.80;;;10.86
68911;BMP180;55953;51.650;-0.522;2023-12-22T07:57:05;100259.00;;;10.82
68911;BMP180;55953;51.650;-0.522;2023-12-22T07:59:33;100258.80;;;10.80
68911;BMP180;55953;51.650;-0.522;2023-12-22T08:02:02;100266.60;;;10.90
68911;BMP180;55953;51.650;-0.522;2023-12-22T08:04:30;100258.60;;;10.90
68911;BMP180;55953;51.650;-0.522;2023-12-22T08:06:59;100270.20;;;10.90
68911;BMP180;55953;51.650;-0.522;2023-12-22T08:09:27;100265.60;;;10.88
68911;BMP180;55953;51.650;-0.522;2023-12-22T08:11:55;100279.40;;;10.90
68911;BMP180;55953;51.650;-0.522;2023-12-22T08:14:24;100274.20;;;10.90
68911;BMP180;55953;51.650;-0.522;2023-12-22T08:16:52;100280.20;;;11.00
68911;BMP180;55953;51.650;-0.522;2023-12-22T08:19:20;100279.60;;;11.00
68911;BMP180;55953;51.650;-0.522;2023-12-22T08:21:52;100287.80;;;11.08
68911;BMP180;55953;51.650;-0.522;2023-12-22T08:24:21;100288.40;;;11.08
68911;BMP180;55953;51.650;-0.522;2023-12-22T08:26:50;100287.40;;;11.10
68911;BMP180;55953;51.650;-0.522;2023-12-22T08:29:19;100287.60;;;11.18
68911;BMP180;55953;51.650;-0.522;2023-12-22T08:31:48;100281.80;;;11.20
68911;BMP180;55953;51.650;-0.522;2023-12-22T08:34:16;100289.00;;;11.20
68911;BMP180;55953;51.650;-0.522;2023-12-22T08:36:44;100287.80;;;11.30
68911;BMP180;55953;51.650;-0.522;2023-12-22T08:39:12;100280.20;;;11.30
68911;BMP180;55953;51.650;-0.522;2023-12-22T08:41:41;100289.80;;;11.30
68911;BMP180;55953;51.650;-0.522;2023-12-22T08:44:10;100289.00;;;11.38
68911;BMP180;55953;51.650;-0.522;2023-12-22T08:46:39;100285.80;;;11.40
68911;BMP180;55953;51.650;-0.522;2023-12-22T08:49:07;100285.00;;;11.40
68911;BMP180;55953;51.650;-0.522;2023-12-22T08:51:35;100287.00;;;11.40
68911;BMP180;55953;51.650;-0.522;2023-12-22T08:54:04;100281.40;;;11.40
68911;BMP180;55953;51.650;-0.522;2023-12-22T08:56:32;100288.00;;;11.40
68911;BMP180;55953;51.650;-0.522;2023-12-22T08:59:00;100283.20;;;11.40
68911;BMP180;55953;51.650;-0.522;2023-12-22T09:01:28;100290.60;;;11.40
68911;BMP180;55953;51.650;-0.522;2023-12-22T09:03:56;100283.40;;;11.40
68911;BMP180;55953;51.650;-0.522;2023-12-22T09:06:24;100291.00;;;11.44
68911;BMP180;55953;51.650;-0.522;2023-12-22T09:08:53;100292.40;;;11.50
68911;BMP180;55953;51.650;-0.522;2023-12-22T09:11:22;100293.20;;;11.50
68911;BMP180;55953;51.650;-0.522;2023-12-22T09:13:50;100296.20;;;11.50
68911;BMP180;55953;51.650;-0.522;2023-12-22T09:16:22;100292.20;;;11.54
68911;BMP180;55953;51.650;-0.522;2023-12-22T09:18:51;100304.20;;;11.56
68911;BMP180;55953;51.650;-0.522;2023-12-22T09:21:19;100304.20;;;11.50
68911;BMP180;55953;51.650;-0.522;2023-12-22T09:23:47;100293.00;;;11.60
68911;BMP180;55953;51.650;-0.522;2023-12-22T09:26:15;100303.60;;;11.60
68911;BMP180;55953;51.650;-0.522;2023-12-22T09:28:44;100306.80;;;11.60
68911;BMP180;55953;51.650;-0.522;2023-12-22T09:31:13;100301.00;;;11.60
68911;BMP180;55953;51.650;-0.522;2023-12-22T09:33:42;100315.00;;;11.60
68911;BMP180;55953;51.650;-0.522;2023-12-22T09:36:10;100310.20;;;11.60
68911;BMP180;55953;51.650;-0.522;2023-12-22T09:38:39;100321.00;;;11.70
68911;BMP180;55953;51.650;-0.522;2023-12-22T09:41:09;100334.20;;;11.70
68911;BMP180;55953;51.650;-0.522;2023-12-22T09:43:38;100331.00;;;11.70
68911;BMP180;55953;51.650;-0.522;2023-12-22T09:46:08;100321.60;;;11.70
68911;BMP180;55953;51.650;-0.522;2023-12-22T09:48:38;100327.40;;;11.70
68911;BMP180;55953;51.650;-0.522;2023-12-22T09:51:09;100332.80;;;11.74
68911;BMP180;55953;51.650;-0.522;2023-12-22T09:53:40;100333.00;;;11.80
68911;BMP180;55953;51.650;-0.522;2023-12-22T09:56:09;100332.40;;;11.80
68911;BMP180;55953;51.650;-0.522;2023-12-22T09:58:37;100334.00;;;11.80
68911;BMP180;55953;51.650;-0.522;2023-12-22T10:01:06;100343.00;;;11.86
68911;BMP180;55953;51.650;-0.522;2023-12-22T10:03:37;100347.40;;;11.90
68911;BMP180;55953;51.650;-0.522;2023-12-22T10:06:05;100353.60;;;11.98
68911;BMP180;55953;51.650;-0.522;2023-12-22T10:08:34;100344.80;;;12.00
68911;BMP180;55953;51.650;-0.522;2023-12-22T10:11:03;100348.20;;;12.00
68911;BMP180;55953;51.650;-0.522;2023-12-22T10:13:35;100353.40;;;12.00
68911;BMP180;55953;51.650;-0.522;2023-12-22T10:16:06;100352.80;;;12.10
68911;BMP180;55953;51.650;-0.522;2023-12-22T10:18:34;100346.80;;;12.10
68911;BMP180;55953;51.650;-0.522;2023-12-22T10:21:02;100355.40;;;12.18
68911;BMP180;55953;51.650;-0.522;2023-12-22T10:23:30;100349.80;;;12.20
68911;BMP180;55953;51.650;-0.522;2023-12-22T10:25:59;100352.20;;;12.20
68911;BMP180;55953;51.650;-0.522;2023-12-22T10:28:28;100354.40;;;12.22
68911;BMP180;55953;51.650;-0.522;2023-12-22T10:30:56;100358.00;;;12.28
68911;BMP180;55953;51.650;-0.522;2023-12-22T10:33:29;100358.00;;;12.26
68911;BMP180;55953;51.650;-0.522;2023-12-22T10:36:01;100361.00;;;12.28
68911;BMP180;55953;51.650;-0.522;2023-12-22T10:38:33;100363.60;;;12.30
68911;BMP180;55953;51.650;-0.522;2023-12-22T10:41:06;100356.60;;;12.32
68911;BMP180;55953;51.650;-0.522;2023-12-22T10:43:40;100361.60;;;12.40
68911;BMP180;55953;51.650;-0.522;2023-12-22T10:46:09;100365.80;;;12.40
68911;BMP180;55953;51.650;-0.522;2023-12-22T10:48:40;100357.00;;;12.40
68911;BMP180;55953;51.650;-0.522;2023-12-22T10:51:11;100368.20;;;12.40
68911;BMP180;55953;51.650;-0.522;2023-12-22T10:53:42;100362.60;;;12.40
68911;BMP180;55953;51.650;-0.522;2023-12-22T10:56:11;100363.40;;;12.40
68911;BMP180;55953;51.650;-0.522;2023-12-22T10:58:39;100355.00;;;12.40
68911;BMP180;55953;51.650;-0.522;2023-12-22T11:01:09;100359.80;;;12.44
68911;BMP180;55953;51.650;-0.522;2023-12-22T11:03:39;100359.60;;;12.42
68911;BMP180;55953;51.650;-0.522;2023-12-22T11:06:14;100369.20;;;12.40
68911;BMP180;55953;51.650;-0.522;2023-12-22T11:08:45;100373.60;;;12.50
68911;BMP180;55953;51.650;-0.522;2023-12-22T11:11:38;100376.00;;;12.50
68911;BMP180;55953;51.650;-0.522;2023-12-22T11:14:07;100372.60;;;12.50
68911;BMP180;55953;51.650;-0.522;2023-12-22T11:16:36;100372.60;;;12.50
68911;BMP180;55953;51.650;-0.522;2023-12-22T11:19:04;100387.60;;;12.50
68911;BMP180;55953;51.650;-0.522;2023-12-22T11:21:32;100372.80;;;12.50
68911;BMP180;55953;51.650;-0.522;2023-12-22T11:24:03;100381.20;;;12.50
68911;BMP180;55953;51.650;-0.522;2023-12-22T11:26:33;100386.00;;;12.40
68911;BMP180;55953;51.650;-0.522;2023-12-22T11:29:02;100387.60;;;12.40
68911;BMP180;55953;51.650;-0.522;2023-12-22T11:31:31;100386.80;;;12.50
68911;BMP180;55953;51.650;-0.522;2023-12-22T11:34:01;100375.20;;;12.50
68911;BMP180;55953;51.650;-0.522;2023-12-22T11:36:40;100374.80;;;12.50
68911;BMP180;55953;51.650;-0.522;2023-12-22T11:39:08;100370.80;;;12.50
68911;BMP180;55953;51.650;-0.522;2023-12-22T11:41:38;100375.20;;;12.50
68911;BMP180;55953;51.650;-0.522;2023-12-22T11:44:07;100366.00;;;12.50
68911;BMP180;55953;51.650;-0.522;2023-12-22T11:46:36;100359.80;;;12.60
68911;BMP180;55953;51.650;-0.522;2023-12-22T11:49:04;100358.20;;;12.60
68911;BMP180;55953;51.650;-0.522;2023-12-22T11:51:33;100358.40;;;12.66
68911;BMP180;55953;51.650;-0.522;2023-12-22T11:54:43;100370.80;;;12.70
68911;BMP180;55953;51.650;-0.522;2023-12-22T11:57:32;100356.60;;;12.68
68911;BMP180;55953;51.650;-0.522;2023-12-22T12:00:08;100368.40;;;12.70
68911;BMP180;55953;51.650;-0.522;2023-12-22T12:02:41;100372.60;;;12.70
68911;BMP180;55953;51.650;-0.522;2023-12-22T12:05:12;100365.40;;;12.70
68911;BMP180;55953;51.650;-0.522;2023-12-22T12:07:44;100375.20;;;12.70
68911;BMP180;55953;51.650;-0.522;2023-12-22T12:10:36;100361.40;;;12.70
68911;BMP180;55953;51.650;-0.522;2023-12-22T12:13:22;100359.80;;;12.70
68911;BMP180;55953;51.650;-0.522;2023-12-22T12:15:52;100351.60;;;12.70
68911;BMP180;55953;51.650;-0.522;2023-12-22T12:18:24;100353.20;;;12.70
68911;BMP180;55953;51.650;-0.522;2023-12-22T12:20:52;100358.40;;;12.70
68911;BMP180;55953;51.650;-0.522;2023-12-22T12:23:23;100362.80;;;12.70
68911;BMP180;55953;51.650;-0.522;2023-12-22T12:25:51;100362.40;;;12.68
68911;BMP180;55953;51.650;-0.522;2023-12-22T12:28:26;100350.80;;;12.60
68911;BMP180;55953;51.650;-0.522;2023-12-22T12:31:07;100360.60;;;12.60
68911;BMP180;55953;51.650;-0.522;2023-12-22T12:33:36;100366.20;;;12.60
68911;BMP180;55953;51.650;-0.522;2023-12-22T12:36:05;100361.40;;;12.60
68911;BMP180;55953;51.650;-0.522;2023-12-22T12:38:55;100360.00;;;12.60
68911;BMP180;55953;51.650;-0.522;2023-12-22T12:41:31;100377.80;;;12.56
68911;BMP180;55953;51.650;-0.522;2023-12-22T12:44:04;100373.80;;;12.50
68911;BMP180;55953;51.650;-0.522;2023-12-22T12:46:37;100360.00;;;12.50
68911;BMP180;55953;51.650;-0.522;2023-12-22T12:49:07;100359.20;;;12.50
68911;BMP180;55953;51.650;-0.522;2023-12-22T12:51:40;100359.40;;;12.50
68911;BMP180;55953;51.650;-0.522;2023-12-22T12:54:10;100366.60;;;12.60
68911;BMP180;55953;51.650;-0.522;2023-12-22T12:56:43;100363.60;;;12.60
68911;BMP180;55953;51.650;-0.522;2023-12-22T12:59:14;100359.80;;;12.60
68911;BMP180;55953;51.650;-0.522;2023-12-22T13:01:45;100363.80;;;12.60
68911;BMP180;55953;51.650;-0.522;2023-12-22T13:04:14;100365.00;;;12.60
68911;BMP180;55953;51.650;-0.522;2023-12-22T13:06:50;100361.20;;;12.60
68911;BMP180;55953;51.650;-0.522;2023-12-22T13:09:19;100352.00;;;12.60
68911;BMP180;55953;51.650;-0.522;2023-12-22T13:11:47;100354.00;;;12.60
68911;BMP180;55953;51.650;-0.522;2023-12-22T13:14:23;100356.80;;;12.60
68911;BMP180;55953;51.650;-0.522;2023-12-22T13:16:56;100345.40;;;12.60
68911;BMP180;55953;51.650;-0.522;2023-12-22T13:19:26;100351.00;;;12.70
68911;BMP180;55953;51.650;-0.522;2023-12-22T13:21:55;100366.00;;;12.70
68911;BMP180;55953;51.650;-0.522;2023-12-22T13:24:23;100356.60;;;12.70
68911;BMP180;55953;51.650;-0.522;2023-12-22T13:27:03;100360.00;;;12.70
68911;BMP180;55953;51.650;-0.522;2023-12-22T13:29:45;100350.80;;;12.70
68911;BMP180;55953;51.650;-0.522;2023-12-22T13:32:21;100356.80;;;12.70
68911;BMP180;55953;51.650;-0.522;2023-12-22T13:34:54;100365.80;;;12.70
68911;BMP180;55953;51.650;-0.522;2023-12-22T13:37:23;100367.80;;;12.70
68911;BMP180;55953;51.650;-0.522;2023-12-22T13:39:54;100371.20;;;12.70
68911;BMP180;55953;51.650;-0.522;2023-12-22T13:42:23;100362.80;;;12.70
68911;BMP180;55953;51.650;-0.522;2023-12-22T13:44:52;100363.00;;;12.70
68911;BMP180;55953;51.650;-0.522;2023-12-22T13:47:21;100360.40;;;12.70
68911;BMP180;55953;51.650;-0.522;2023-12-22T13:49:53;100379.20;;;12.70
68911;BMP180;55953;51.650;-0.522;2023-12-22T13:52:39;100374.80;;;12.70
68911;BMP180;55953;51.650;-0.522;2023-12-22T13:55:14;100370.00;;;12.70
68911;BMP180;55953;51.650;-0.522;2023-12-22T13:57:44;100371.80;;;12.70
68911;BMP180;55953;51.650;-0.522;2023-12-22T14:02:46;100357.20;;;12.70